Time;durP1;ratioP1;P1;durP2;ratioP2;P2;SDS_P1;SDS_P2;PMS_P1;PMS_P2;Temp;Humidity;BMP_temperature;BMP_pressure;BME280_temperature;BME280_humidity;BME280_pressure;Samples;Min_cycle;Max_cycle;Signal;HPM_P1;HPM_P2
2023/09/04 00:00:29;;;;;;;10.40;9.60;;;;;;;;;;5005976;28;20052;-73
2023/09/04 00:02:55;;;;;;;10.85;9.93;;;;;;;;;;5005956;28;20061;-73
2023/09/04 00:05:20;;;;;;;10.65;9.75;;;;;;;;;;5005534;28;20025;-73
2023/09/04 00:07:46;;;;;;;11.82;10.73;;;;;;;;;;5004042;28;20507;-73
2023/09/04 00:10:12;;;;;;;11.23;10.43;;;;;;;;;;5005571;28;20053;-73
2023/09/04 00:12:38;;;;;;;10.88;9.88;;;;;;;;;;5004677;28;20034;-73
2023/09/04 00:15:05;;;;;;;10.85;9.95;;;;;;;;;;5003678;28;20045;-73
2023/09/04 00:17:30;;;;;;;11.95;10.80;;;;;;;;;;4987221;28;20058;-73
2023/09/04 00:19:56;;;;;;;11.57;10.38;;;;;;;;;;5004667;28;20037;-73
2023/09/04 00:22:22;;;;;;;11.13;10.13;;;;;;;;;;5005543;28;20042;-73
2023/09/04 00:24:47;;;;;;;11.32;10.40;;;;;;;;;;5003220;28;20048;-73
2023/09/04 00:27:13;;;;;;;11.70;10.65;;;;;;;;;;5004194;28;20637;-73
2023/09/04 00:29:39;;;;;;;11.65;10.75;;;;;;;;;;5004409;28;20036;-73
2023/09/04 00:32:06;;;;;;;11.55;10.45;;;;;;;;;;4985685;28;20033;-72
2023/09/04 00:34:32;;;;;;;11.88;10.82;;;;;;;;;;5003813;28;20135;-73
2023/09/04 00:36:58;;;;;;;11.15;10.18;;;;;;;;;;5001800;28;20509;-73
2023/09/04 00:39:24;;;;;;;12.23;10.98;;;;;;;;;;5020227;28;20541;-73
2023/09/04 00:41:49;;;;;;;11.93;10.60;;;;;;;;;;4999301;28;20150;-73
2023/09/04 00:44:16;;;;;;;11.80;10.82;;;;;;;;;;4987560;28;20533;-73
2023/09/04 00:46:43;;;;;;;11.07;10.20;;;;;;;;;;4987823;28;20040;-73
2023/09/04 00:49:12;;;;;;;12.10;10.90;;;;;;;;;;5017592;28;20619;-73
2023/09/04 00:51:42;;;;;;;11.73;10.73;;;;;;;;;;5005197;28;20041;-73
2023/09/04 00:54:08;;;;;;;11.90;10.98;;;;;;;;;;5003423;28;20042;-73
2023/09/04 00:56:34;;;;;;;12.38;11.20;;;;;;;;;;5005063;28;20034;-73
2023/09/04 00:59:01;;;;;;;10.93;9.90;;;;;;;;;;5002599;28;20042;-73
2023/09/04 01:01:28;;;;;;;11.40;10.35;;;;;;;;;;5003973;28;20041;-73
2023/09/04 01:03:54;;;;;;;12.00;10.82;;;;;;;;;;5019945;28;20049;-73
2023/09/04 01:06:20;;;;;;;11.52;10.38;;;;;;;;;;5003617;28;20617;-73
2023/09/04 01:08:46;;;;;;;12.32;11.07;;;;;;;;;;5003380;28;20038;-73
2023/09/04 01:11:21;;;;;;;12.05;10.80;;;;;;;;;;5005308;28;20430;-73
2023/09/04 01:13:51;;;;;;;13.07;11.65;;;;;;;;;;5003991;28;20049;-73
2023/09/04 01:16:17;;;;;;;11.77;10.82;;;;;;;;;;5001392;28;20049;-73
2023/09/04 01:18:43;;;;;;;13.23;11.13;;;;;;;;;;5001465;28;20409;-73
2023/09/04 01:21:09;;;;;;;12.50;10.52;;;;;;;;;;5003969;28;20560;-73
2023/09/04 01:23:35;;;;;;;17.58;12.55;;;;;;;;;;5000013;28;20409;-73
2023/09/04 01:26:11;;;;;;;13.05;11.63;;;;;;;;;;5003242;28;20033;-72
2023/09/04 01:28:50;;;;;;;12.68;11.48;;;;;;;;;;5003327;28;20556;-73
2023/09/04 01:31:29;;;;;;;13.40;11.52;;;;;;;;;;5000224;28;20084;-73
2023/09/04 01:34:17;;;;;;;;;;;;;;;;;;5005451;28;20048;-72
2023/09/04 01:36:44;;;;;;;12.70;11.60;;;;;;;;;;4995272;28;20392;-73
2023/09/04 01:39:10;;;;;;;14.10;11.38;;;;;;;;;;5003287;28;20045;-73
2023/09/04 01:41:38;;;;;;;12.57;11.48;;;;;;;;;;5001116;28;20555;-73
2023/09/04 01:44:05;;;;;;;13.93;11.82;;;;;;;;;;5003291;28;20514;-73
2023/09/04 01:46:31;;;;;;;14.65;12.23;;;;;;;;;;5019938;28;20046;-74
2023/09/04 01:48:57;;;;;;;12.35;11.23;;;;;;;;;;5002269;28;20048;-73
2023/09/04 01:51:22;;;;;;;12.05;11.07;;;;;;;;;;5007152;28;20037;-73
2023/09/04 01:53:48;;;;;;;12.50;11.35;;;;;;;;;;5007791;28;20037;-73
2023/09/04 01:56:13;;;;;;;12.02;11.02;;;;;;;;;;4988460;28;20046;-73
2023/09/04 01:58:39;;;;;;;12.23;11.23;;;;;;;;;;4988465;28;20859;-73
2023/09/04 02:01:05;;;;;;;12.88;11.57;;;;;;;;;;5006163;28;20027;-73
2023/09/04 02:03:30;;;;;;;12.57;11.32;;;;;;;;;;5023173;28;20025;-73
2023/09/04 02:05:56;;;;;;;13.02;11.65;;;;;;;;;;5021166;28;20046;-73
2023/09/04 02:08:23;;;;;;;12.98;11.73;;;;;;;;;;5006232;28;20030;-73
2023/09/04 02:10:49;;;;;;;13.57;12.25;;;;;;;;;;5004273;28;20047;-73
2023/09/04 02:13:14;;;;;;;14.30;12.90;;;;;;;;;;5020524;28;20168;-73
2023/09/04 02:15:40;;;;;;;14.57;12.98;;;;;;;;;;5001178;28;20045;-73
2023/09/04 02:18:05;;;;;;;14.88;13.38;;;;;;;;;;4993452;28;20033;-73
2023/09/04 02:20:32;;;;;;;14.02;12.63;;;;;;;;;;5022921;28;20119;-73
2023/09/04 02:22:58;;;;;;;15.30;12.55;;;;;;;;;;4990164;28;20046;-73
2023/09/04 02:25:24;;;;;;;13.25;11.95;;;;;;;;;;5001367;28;20048;-73
2023/09/04 02:27:50;;;;;;;14.57;13.20;;;;;;;;;;5006190;28;20041;-73
2023/09/04 02:30:16;;;;;;;14.00;12.55;;;;;;;;;;4990063;28;20770;-72
2023/09/04 02:32:43;;;;;;;15.82;13.00;;;;;;;;;;4982574;28;20429;-73
2023/09/04 02:35:08;;;;;;;16.23;12.48;;;;;;;;;;5004322;28;20044;-73
2023/09/04 02:37:34;;;;;;;14.57;13.00;;;;;;;;;;5005520;28;20042;-73
2023/09/04 02:40:00;;;;;;;14.98;13.40;;;;;;;;;;5006200;28;20042;-73
2023/09/04 02:42:28;;;;;;;19.35;14.55;;;;;;;;;;5003987;28;20027;-73
2023/09/04 02:44:54;;;;;;;19.92;14.40;;;;;;;;;;5005671;28;20505;-73
2023/09/04 02:47:19;;;;;;;17.48;14.52;;;;;;;;;;5006692;28;20069;-73
2023/09/04 02:49:46;;;;;;;17.08;15.07;;;;;;;;;;5007201;28;20038;-73
2023/09/04 02:52:11;;;;;;;16.80;14.82;;;;;;;;;;5020136;28;20113;-73
2023/09/04 02:54:37;;;;;;;21.75;15.43;;;;;;;;;;5005683;28;20116;-72
2023/09/04 02:57:03;;;;;;;16.73;14.80;;;;;;;;;;5022106;28;20041;-73
2023/09/04 02:59:28;;;;;;;19.45;15.07;;;;;;;;;;4986972;28;20064;-73
2023/09/04 03:01:54;;;;;;;16.67;14.10;;;;;;;;;;5005797;28;20045;-73
2023/09/04 03:04:19;;;;;;;16.08;14.32;;;;;;;;;;5021952;28;20052;-73
2023/09/04 03:06:45;;;;;;;20.55;14.20;;;;;;;;;;5006785;28;20052;-73
2023/09/04 03:09:11;;;;;;;16.58;13.60;;;;;;;;;;5016265;28;20041;-73
2023/09/04 03:11:36;;;;;;;18.92;13.32;;;;;;;;;;4999917;28;20049;-73
2023/09/04 03:14:02;;;;;;;14.05;12.63;;;;;;;;;;5018416;28;20033;-73
2023/09/04 03:16:28;;;;;;;14.57;13.05;;;;;;;;;;5002405;28;20038;-72
2023/09/04 03:18:54;;;;;;;15.65;13.90;;;;;;;;;;5016201;28;20995;-73
2023/09/04 03:21:20;;;;;;;17.55;13.73;;;;;;;;;;4985692;28;20050;-73
2023/09/04 03:23:47;;;;;;;16.02;13.27;;;;;;;;;;5003823;28;20046;-73
2023/09/04 03:26:13;;;;;;;15.82;12.07;;;;;;;;;;5001117;28;20707;-73
2023/09/04 03:28:39;;;;;;;15.27;12.25;;;;;;;;;;5018604;28;20044;-73
2023/09/04 03:31:12;;;;;;;14.00;12.50;;;;;;;;;;5001834;28;20611;-73
2023/09/04 03:33:38;;;;;;;15.73;12.88;;;;;;;;;;5003266;28;20117;-73
2023/09/04 03:36:04;;;;;;;16.48;12.23;;;;;;;;;;5001178;28;20180;-73
2023/09/04 03:38:30;;;;;;;13.95;12.50;;;;;;;;;;5001822;28;20395;-73
2023/09/04 03:40:56;;;;;;;17.10;12.38;;;;;;;;;;5017766;28;20040;-73
2023/09/04 03:43:21;;;;;;;14.13;12.73;;;;;;;;;;5000128;28;20049;-73
2023/09/04 03:45:47;;;;;;;14.40;12.98;;;;;;;;;;4996855;28;20046;-73
2023/09/04 03:48:12;;;;;;;13.45;12.18;;;;;;;;;;5016277;28;20042;-73
2023/09/04 03:50:39;;;;;;;15.23;12.20;;;;;;;;;;5002817;28;20644;-73
2023/09/04 03:53:05;;;;;;;13.93;12.50;;;;;;;;;;5001410;28;20093;-73
2023/09/04 03:55:31;;;;;;;13.63;12.23;;;;;;;;;;4999860;28;20083;-73
2023/09/04 03:57:58;;;;;;;13.82;12.52;;;;;;;;;;5015940;28;20041;-72
2023/09/04 04:00:24;;;;;;;13.55;11.85;;;;;;;;;;5001214;28;20033;-73
2023/09/04 04:02:51;;;;;;;14.18;12.77;;;;;;;;;;5004356;28;20044;-73
2023/09/04 04:05:18;;;;;;;13.48;12.07;;;;;;;;;;5004008;28;20033;-73
2023/09/04 04:07:44;;;;;;;15.45;12.90;;;;;;;;;;5004216;28;20497;-73
2023/09/04 04:10:11;;;;;;;14.48;12.40;;;;;;;;;;4988545;28;20069;-73
2023/09/04 04:12:37;;;;;;;13.70;12.43;;;;;;;;;;4989074;28;20026;-73
2023/09/04 04:15:06;;;;;;;14.25;12.52;;;;;;;;;;5002973;28;20026;-73
2023/09/04 04:17:35;;;;;;;16.02;12.55;;;;;;;;;;5006066;28;20045;-73
2023/09/04 04:20:06;;;;;;;13.65;12.23;;;;;;;;;;5006157;28;20030;-73
2023/09/04 04:22:33;;;;;;;13.65;12.32;;;;;;;;;;5020939;28;20047;-73
2023/09/04 04:24:58;;;;;;;12.98;11.77;;;;;;;;;;5003621;28;20045;-73
2023/09/04 04:27:24;;;;;;;16.95;13.57;;;;;;;;;;4987482;28;20517;-73
2023/09/04 04:29:52;;;;;;;14.50;13.20;;;;;;;;;;5000437;28;20129;-74
2023/09/04 04:32:17;;;;;;;14.80;13.45;;;;;;;;;;5001118;28;20057;-72
2023/09/04 04:34:43;;;;;;;14.75;13.23;;;;;;;;;;5001892;28;20061;-73
2023/09/04 04:37:11;;;;;;;15.40;12.60;;;;;;;;;;5003810;28;20474;-72
2023/09/04 04:39:37;;;;;;;14.50;13.07;;;;;;;;;;5003745;28;20112;-73
2023/09/04 04:42:03;;;;;;;14.70;12.90;;;;;;;;;;5001116;28;20121;-73
2023/09/04 04:44:30;;;;;;;16.90;13.38;;;;;;;;;;5003198;28;20401;-73
2023/09/04 04:46:56;;;;;;;16.60;13.45;;;;;;;;;;5003725;28;20103;-73
2023/09/04 04:49:23;;;;;;;16.50;14.35;;;;;;;;;;5018617;28;20046;-73
2023/09/04 04:51:49;;;;;;;16.00;14.40;;;;;;;;;;4999151;28;20058;-73
2023/09/04 04:54:16;;;;;;;17.05;14.05;;;;;;;;;;4988199;28;20094;-73
2023/09/04 04:56:42;;;;;;;15.45;13.85;;;;;;;;;;5016522;28;20057;-73
2023/09/04 04:59:08;;;;;;;15.35;13.65;;;;;;;;;;5005495;28;20042;-72
2023/09/04 05:01:34;;;;;;;17.55;14.77;;;;;;;;;;5004333;28;20029;-73
2023/09/04 05:04:00;;;;;;;18.55;15.02;;;;;;;;;;5002879;28;20120;-73
2023/09/04 05:06:26;;;;;;;15.77;13.85;;;;;;;;;;5004215;28;20109;-73
2023/09/04 05:08:51;;;;;;;18.88;15.18;;;;;;;;;;5004032;28;20060;-73
2023/09/04 05:11:17;;;;;;;16.92;15.23;;;;;;;;;;4987814;28;20237;-73
2023/09/04 05:13:43;;;;;;;15.88;14.15;;;;;;;;;;5017733;28;20524;-72
2023/09/04 05:16:09;;;;;;;16.88;15.27;;;;;;;;;;4985487;28;20104;-74
2023/09/04 05:18:37;;;;;;;18.80;14.38;;;;;;;;;;5020157;28;20038;-73
2023/09/04 05:21:06;;;;;;;19.13;15.60;;;;;;;;;;5002826;28;20101;-73
2023/09/04 05:23:33;;;;;;;15.85;14.20;;;;;;;;;;5006191;28;20868;-73
2023/09/04 05:25:59;;;;;;;15.93;14.25;;;;;;;;;;5007548;28;20040;-73
2023/09/04 05:28:26;;;;;;;16.70;14.55;;;;;;;;;;5021651;28;20125;-73
2023/09/04 05:30:51;;;;;;;17.73;15.02;;;;;;;;;;5009187;28;20482;-73
2023/09/04 05:33:17;;;;;;;17.02;15.15;;;;;;;;;;5006216;28;20092;-73
2023/09/04 05:35:43;;;;;;;19.33;15.00;;;;;;;;;;5008542;28;20060;-72
2023/09/04 05:38:08;;;;;;;21.27;15.98;;;;;;;;;;5004262;28;20552;-73
2023/09/04 05:40:34;;;;;;;15.43;14.00;;;;;;;;;;5007837;28;20509;-73
2023/09/04 05:42:59;;;;;;;17.02;15.15;;;;;;;;;;5008549;28;20493;-73
2023/09/04 05:45:27;;;;;;;16.60;15.00;;;;;;;;;;4991017;28;20049;-73
2023/09/04 05:47:52;;;;;;;16.13;14.55;;;;;;;;;;5006870;28;20026;-73
2023/09/04 05:50:18;;;;;;;22.08;17.15;;;;;;;;;;5008443;28;20040;-73
2023/09/04 05:52:43;;;;;;;18.73;16.23;;;;;;;;;;5008512;28;20037;-73
2023/09/04 05:55:09;;;;;;;20.00;15.20;;;;;;;;;;5022489;28;20491;-73
2023/09/04 05:57:35;;;;;;;21.00;16.23;;;;;;;;;;5006436;28;20077;-73
2023/09/04 06:00:07;;;;;;;16.83;15.07;;;;;;;;;;5007287;28;20220;-73
2023/09/04 06:02:39;;;;;;;16.98;14.98;;;;;;;;;;5003639;28;20410;-73
2023/09/04 06:05:04;;;;;;;15.63;13.90;;;;;;;;;;5006726;28;20041;-73
2023/09/04 06:07:30;;;;;;;15.77;14.18;;;;;;;;;;5008533;28;20042;-73
2023/09/04 06:09:56;;;;;;;20.33;14.88;;;;;;;;;;5003239;28;20038;-73
2023/09/04 06:12:21;;;;;;;17.08;15.25;;;;;;;;;;5006978;28;20066;-73
2023/09/04 06:14:47;;;;;;;19.02;14.73;;;;;;;;;;5007717;28;20098;-73
2023/09/04 06:17:12;;;;;;;16.27;14.45;;;;;;;;;;5019587;28;20022;-73
2023/09/04 06:19:38;;;;;;;15.95;14.45;;;;;;;;;;5005840;28;20033;-73
2023/09/04 06:22:03;;;;;;;16.27;14.05;;;;;;;;;;5007816;28;20045;-73
2023/09/04 06:24:29;;;;;;;16.20;14.52;;;;;;;;;;5007646;28;20105;-74
2023/09/04 06:26:54;;;;;;;16.20;14.60;;;;;;;;;;5006731;28;20125;-73
2023/09/04 06:29:20;;;;;;;15.43;14.02;;;;;;;;;;5005287;28;20370;-73
2023/09/04 06:31:46;;;;;;;16.67;13.93;;;;;;;;;;5003292;28;20098;-73
2023/09/04 06:34:12;;;;;;;14.63;13.10;;;;;;;;;;5007092;28;20042;-73
2023/09/04 06:36:37;;;;;;;15.25;13.75;;;;;;;;;;5007833;28;20034;-73
2023/09/04 06:39:04;;;;;;;14.02;12.80;;;;;;;;;;5021619;28;20037;-73
2023/09/04 06:41:32;;;;;;;14.45;13.23;;;;;;;;;;5005411;28;20519;-73
2023/09/04 06:43:58;;;;;;;14.30;12.93;;;;;;;;;;5007094;28;20045;-73
2023/09/04 06:46:24;;;;;;;16.00;12.85;;;;;;;;;;5006515;28;20036;-73
2023/09/04 06:48:49;;;;;;;13.55;12.40;;;;;;;;;;5005060;28;20217;-73
2023/09/04 06:51:16;;;;;;;12.70;11.70;;;;;;;;;;5023089;28;20045;-73
2023/09/04 06:53:42;;;;;;;12.85;11.85;;;;;;;;;;5022690;28;20065;-74
2023/09/04 06:56:08;;;;;;;12.50;11.40;;;;;;;;;;5007427;28;20523;-73
2023/09/04 06:58:34;;;;;;;12.15;11.10;;;;;;;;;;5005789;28;20030;-73
2023/09/04 07:01:03;;;;;;;11.68;10.77;;;;;;;;;;5005259;28;20064;-73
2023/09/04 07:03:29;;;;;;;11.63;10.82;;;;;;;;;;5006295;28;20030;-73
2023/09/04 07:05:55;;;;;;;11.18;10.30;;;;;;;;;;5005038;28;20646;-73
2023/09/04 07:08:20;;;;;;;10.73;10.00;;;;;;;;;;5007848;28;20033;-73
2023/09/04 07:10:49;;;;;;;10.88;10.00;;;;;;;;;;5007331;28;20033;-73
2023/09/04 07:13:15;;;;;;;;;;;;;;;;;;5016974;28;20037;-73
2023/09/04 07:15:41;;;;;;;10.27;9.52;;;;;;;;;;4999642;28;19979;-74
2023/09/04 07:18:07;;;;;;;10.40;9.50;;;;;;;;;;5021526;28;20050;-74
2023/09/04 07:20:33;;;;;;;10.35;9.65;;;;;;;;;;5006805;28;20025;-73
2023/09/04 07:22:59;;;;;;;12.18;9.60;;;;;;;;;;5004339;28;20048;-73
2023/09/04 07:25:25;;;;;;;10.85;9.82;;;;;;;;;;5004504;28;20408;-74
2023/09/04 07:27:50;;;;;;;10.55;9.68;;;;;;;;;;5019393;28;20126;-73
2023/09/04 07:30:16;;;;;;;11.23;10.20;;;;;;;;;;5003875;28;20401;-73
2023/09/04 07:32:42;;;;;;;10.40;9.52;;;;;;;;;;5006518;28;20304;-74
2023/09/04 07:35:08;;;;;;;10.00;9.30;;;;;;;;;;5006685;28;20408;-73
2023/09/04 07:37:34;;;;;;;10.68;9.20;;;;;;;;;;5006518;28;20029;-73
2023/09/04 07:40:00;;;;;;;10.45;9.52;;;;;;;;;;5020190;28;20279;-73
2023/09/04 07:42:25;;;;;;;10.82;9.68;;;;;;;;;;5006141;28;20103;-74
2023/09/04 07:44:51;;;;;;;9.55;8.85;;;;;;;;;;5005433;28;20041;-73
2023/09/04 07:47:16;;;;;;;10.02;9.23;;;;;;;;;;5003911;28;20587;-73
2023/09/04 07:49:42;;;;;;;9.73;9.02;;;;;;;;;;5004361;28;20046;-73
2023/09/04 07:52:08;;;;;;;10.30;9.38;;;;;;;;;;5005991;28;20038;-74
2023/09/04 07:54:34;;;;;;;10.35;9.40;;;;;;;;;;5005555;28;20030;-74
2023/09/04 07:57:02;;;;;;;9.75;8.95;;;;;;;;;;5006321;28;20029;-73
2023/09/04 07:59:28;;;;;;;9.70;8.90;;;;;;;;;;5004854;28;20030;-73
2023/09/04 08:01:54;;;;;;;10.50;9.70;;;;;;;;;;5005506;28;20041;-74
2023/09/04 08:04:20;;;;;;;10.15;9.32;;;;;;;;;;5006101;28;20044;-73
2023/09/04 08:06:45;;;;;;;9.93;9.13;;;;;;;;;;5004199;28;20029;-73
2023/09/04 08:09:11;;;;;;;9.35;8.65;;;;;;;;;;5005984;28;20040;-73
2023/09/04 08:11:36;;;;;;;9.57;8.88;;;;;;;;;;5006146;28;20096;-73
2023/09/04 08:14:02;;;;;;;9.30;8.60;;;;;;;;;;5005482;28;20040;-73
2023/09/04 08:16:28;;;;;;;9.05;8.23;;;;;;;;;;5019082;28;20034;-74
2023/09/04 08:18:53;;;;;;;9.60;8.80;;;;;;;;;;5005869;28;20632;-74
2023/09/04 08:21:19;;;;;;;9.02;8.43;;;;;;;;;;5006146;28;20310;-73
2023/09/04 08:23:44;;;;;;;8.93;8.35;;;;;;;;;;5004960;28;20058;-73
2023/09/04 08:26:13;;;;;;;9.05;8.38;;;;;;;;;;5003642;28;20088;-74
2023/09/04 08:28:40;;;;;;;8.48;7.95;;;;;;;;;;5001381;28;20481;-74
2023/09/04 08:31:06;;;;;;;8.65;7.95;;;;;;;;;;5005923;28;20073;-74
2023/09/04 08:33:31;;;;;;;8.35;7.75;;;;;;;;;;5002286;28;20049;-74
2023/09/04 08:35:57;;;;;;;8.60;8.07;;;;;;;;;;5005377;28;20044;-74
2023/09/04 08:38:22;;;;;;;8.40;7.68;;;;;;;;;;5005202;28;20116;-74
2023/09/04 08:40:48;;;;;;;9.07;8.48;;;;;;;;;;5005774;28;20112;-74
2023/09/04 08:43:17;;;;;;;8.48;7.55;;;;;;;;;;5003319;28;20041;-73
2023/09/04 08:45:43;;;;;;;;;;;;;;;;;;5006012;28;20077;-74
2023/09/04 08:48:11;;;;;;;8.77;8.18;;;;;;;;;;5005543;28;19967;-74
2023/09/04 08:50:37;;;;;;;9.02;8.20;;;;;;;;;;5003631;28;20049;-74
2023/09/04 08:53:04;;;;;;;8.90;8.20;;;;;;;;;;5005493;28;20048;-74
2023/09/04 08:55:33;;;;;;;8.63;7.97;;;;;;;;;;5005304;28;20033;-74
2023/09/04 08:57:59;;;;;;;9.02;8.43;;;;;;;;;;5003318;28;20421;-74
2023/09/04 09:00:25;;;;;;;9.00;8.30;;;;;;;;;;5005471;28;20040;-74
2023/09/04 09:02:51;;;;;;;9.48;8.10;;;;;;;;;;5005567;28;20085;-74
2023/09/04 09:05:17;;;;;;;8.88;8.07;;;;;;;;;;5005137;28;20396;-74
2023/09/04 09:07:44;;;;;;;8.63;8.13;;;;;;;;;;5002954;28;20067;-74
2023/09/04 09:10:16;;;;;;;8.73;8.13;;;;;;;;;;5004701;28;20618;-74
2023/09/04 09:12:42;;;;;;;9.40;7.88;;;;;;;;;;5001216;28;20117;-74
2023/09/04 09:15:08;;;;;;;8.90;8.20;;;;;;;;;;5002989;28;20120;-74
2023/09/04 09:17:33;;;;;;;9.75;8.93;;;;;;;;;;5003107;28;20042;-73
2023/09/04 09:19:59;;;;;;;8.65;8.13;;;;;;;;;;5007878;28;20056;-74
2023/09/04 09:22:24;;;;;;;8.38;7.78;;;;;;;;;;5005433;28;20038;-74
2023/09/04 09:24:56;;;;;;;8.60;8.00;;;;;;;;;;5003879;28;20466;-74
2023/09/04 09:27:23;;;;;;;9.40;8.70;;;;;;;;;;5004547;28;20486;-74
2023/09/04 09:29:50;;;;;;;8.60;8.10;;;;;;;;;;5006363;28;20042;-74
2023/09/04 09:32:17;;;;;;;8.77;8.07;;;;;;;;;;5004391;28;20053;-74
2023/09/04 09:34:49;;;;;;;8.50;7.90;;;;;;;;;;5005142;28;20033;-74
2023/09/04 09:37:16;;;;;;;8.95;8.35;;;;;;;;;;5002198;28;20036;-74
2023/09/04 09:39:42;;;;;;;9.48;8.77;;;;;;;;;;5004114;28;20034;-74
2023/09/04 09:42:07;;;;;;;9.25;8.65;;;;;;;;;;5004144;28;20091;-74
2023/09/04 09:44:33;;;;;;;8.88;8.10;;;;;;;;;;5004909;28;20462;-75
2023/09/04 09:46:58;;;;;;;8.80;8.20;;;;;;;;;;5003538;28;20046;-75
2023/09/04 09:49:24;;;;;;;8.63;8.02;;;;;;;;;;5002230;28;20029;-74
2023/09/04 09:51:54;;;;;;;8.43;7.80;;;;;;;;;;5016264;28;20030;-74
2023/09/04 09:54:40;;;;;;;8.95;8.15;;;;;;;;;;5004458;28;20026;-74
2023/09/04 09:57:13;;;;;;;8.05;7.55;;;;;;;;;;5004286;28;20076;-75
2023/09/04 09:59:44;;;;;;;8.73;8.00;;;;;;;;;;5002174;28;20033;-75
2023/09/04 10:02:18;;;;;;;8.50;7.90;;;;;;;;;;5004271;28;20026;-74
2023/09/04 10:04:44;;;;;;;8.23;7.72;;;;;;;;;;5000685;28;20136;-75
2023/09/04 10:07:17;;;;;;;8.30;7.70;;;;;;;;;;5017718;28;20038;-74
2023/09/04 10:09:45;;;;;;;8.80;8.20;;;;;;;;;;5006424;28;20132;-74
2023/09/04 10:12:20;;;;;;;8.60;8.00;;;;;;;;;;5008374;28;20457;-75
2023/09/04 10:14:47;;;;;;;8.73;8.13;;;;;;;;;;5010380;28;20037;-73
2023/09/04 10:17:19;;;;;;;8.43;7.72;;;;;;;;;;5007402;28;20048;-74
2023/09/04 10:19:47;;;;;;;8.45;7.75;;;;;;;;;;5004666;28;20030;-74
2023/09/04 10:22:24;;;;;;;8.88;8.05;;;;;;;;;;5007993;28;20121;-74
2023/09/04 10:25:11;;;;;;;8.20;7.70;;;;;;;;;;5007815;28;20041;-73
2023/09/04 10:27:44;;;;;;;8.35;7.70;;;;;;;;;;5005287;28;20048;-74
2023/09/04 10:30:13;;;;;;;9.35;8.07;;;;;;;;;;5008018;28;20038;-74
2023/09/04 10:32:39;;;;;;;8.38;7.72;;;;;;;;;;5006652;28;20103;-74
2023/09/04 10:35:06;;;;;;;8.25;7.65;;;;;;;;;;5004897;28;20481;-75
2023/09/04 10:37:32;;;;;;;8.00;7.40;;;;;;;;;;5007872;28;20045;-74
2023/09/04 10:39:58;;;;;;;8.05;7.50;;;;;;;;;;5007771;28;20041;-75
2023/09/04 10:42:28;;;;;;;7.80;7.18;;;;;;;;;;5006126;28;20045;-75
2023/09/04 10:44:54;;;;;;;7.30;6.80;;;;;;;;;;5007556;28;20087;-75
2023/09/04 10:47:21;;;;;;;7.55;7.03;;;;;;;;;;5007971;28;20569;-74
2023/09/04 10:49:47;;;;;;;8.15;7.45;;;;;;;;;;5004553;28;20092;-75
2023/09/04 10:52:14;;;;;;;7.72;6.97;;;;;;;;;;5002754;28;20091;-75
2023/09/04 10:54:41;;;;;;;7.45;6.70;;;;;;;;;;5007792;28;20513;-75
2023/09/04 10:57:11;;;;;;;7.07;6.45;;;;;;;;;;5007784;28;20099;-74
2023/09/04 10:59:55;;;;;;;7.20;6.70;;;;;;;;;;5007157;28;20529;-75
2023/09/04 11:02:33;;;;;;;8.10;7.50;;;;;;;;;;5007633;28;20030;-74
2023/09/04 11:05:00;;;;;;;7.80;7.30;;;;;;;;;;5002683;28;20104;-75
2023/09/04 11:07:28;;;;;;;8.18;7.57;;;;;;;;;;5003650;28;20307;-75
2023/09/04 11:10:06;;;;;;;7.82;7.32;;;;;;;;;;5005407;28;20042;-74
2023/09/04 11:12:36;;;;;;;7.82;7.32;;;;;;;;;;5001898;28;20041;-75
2023/09/04 11:15:10;;;;;;;8.30;7.68;;;;;;;;;;5020313;28;20452;-75
2023/09/04 11:17:38;;;;;;;7.55;7.05;;;;;;;;;;5005474;28;20137;-74
2023/09/04 11:20:04;;;;;;;7.88;7.28;;;;;;;;;;5005421;28;20041;-75
2023/09/04 11:22:34;;;;;;;8.05;7.45;;;;;;;;;;5004247;28;20251;-75
2023/09/04 11:24:59;;;;;;;8.02;7.43;;;;;;;;;;5005213;28;20042;-75
2023/09/04 11:27:26;;;;;;;8.30;7.60;;;;;;;;;;5004659;28;20026;-75
2023/09/04 11:29:52;;;;;;;7.95;7.35;;;;;;;;;;5002251;28;20036;-74
2023/09/04 11:32:18;;;;;;;7.78;7.28;;;;;;;;;;5004957;28;20167;-75
2023/09/04 11:34:46;;;;;;;8.27;7.72;;;;;;;;;;5005181;28;20053;-77
2023/09/04 11:37:12;;;;;;;7.57;6.97;;;;;;;;;;5003899;28;20030;-73
2023/09/04 11:39:54;;;;;;;7.80;7.30;;;;;;;;;;5005103;28;20038;-76
2023/09/04 11:42:24;;;;;;;8.68;7.80;;;;;;;;;;5004717;28;20073;-75
2023/09/04 11:44:50;;;;;;;8.70;8.00;;;;;;;;;;5013350;28;20037;-75
2023/09/04 11:47:17;;;;;;;8.68;8.05;;;;;;;;;;5003216;28;20410;-75
2023/09/04 11:49:43;;;;;;;8.50;7.90;;;;;;;;;;5020386;28;20049;-74
2023/09/04 11:52:10;;;;;;;8.57;7.90;;;;;;;;;;5004728;28;20030;-75
2023/09/04 11:54:36;;;;;;;8.82;8.23;;;;;;;;;;5002477;28;20046;-75
2023/09/04 11:57:05;;;;;;;8.18;7.60;;;;;;;;;;5003939;28;20516;-75
2023/09/04 11:59:34;;;;;;;;;;;;;;;;;;5005222;28;20096;-74
2023/09/04 12:02:01;;;;;;;9.10;8.40;;;;;;;;;;5005100;28;19917;-75
2023/09/04 12:04:27;;;;;;;8.10;7.60;;;;;;;;;;5002560;28;20065;-75
2023/09/04 12:06:53;;;;;;;9.15;8.45;;;;;;;;;;5002991;28;20073;-75
2023/09/04 12:09:20;;;;;;;8.85;8.25;;;;;;;;;;5004042;28;20040;-75
2023/09/04 12:11:46;;;;;;;9.35;8.70;;;;;;;;;;5019535;28;20477;-76
2023/09/04 12:14:11;;;;;;;8.90;8.30;;;;;;;;;;5001309;28;20278;-75
2023/09/04 12:16:37;;;;;;;9.25;8.45;;;;;;;;;;4986736;28;20040;-75
2023/09/04 12:19:05;;;;;;;9.40;8.80;;;;;;;;;;5004021;28;20042;-75
2023/09/04 12:21:30;;;;;;;9.52;8.65;;;;;;;;;;5004304;28;20033;-76
2023/09/04 12:23:58;;;;;;;8.90;8.40;;;;;;;;;;5001237;28;20121;-76
2023/09/04 12:26:24;;;;;;;9.67;8.70;;;;;;;;;;5002603;28;20513;-76
2023/09/04 12:28:50;;;;;;;10.15;9.45;;;;;;;;;;5003961;28;20077;-75
2023/09/04 12:31:20;;;;;;;10.00;9.13;;;;;;;;;;4997902;28;20054;-76
2023/09/04 12:33:46;;;;;;;9.95;9.35;;;;;;;;;;5002066;28;20120;-76
2023/09/04 12:36:14;;;;;;;10.10;9.18;;;;;;;;;;5003806;28;20441;-76
2023/09/04 12:38:40;;;;;;;10.00;9.30;;;;;;;;;;5001628;28;20150;-76
2023/09/04 12:41:06;;;;;;;9.50;8.80;;;;;;;;;;5003983;28;20863;-76
2023/09/04 12:43:32;;;;;;;10.48;9.57;;;;;;;;;;5004048;28;20041;-75
2023/09/04 12:45:58;;;;;;;9.90;9.18;;;;;;;;;;5003698;28;20113;-76
2023/09/04 12:48:24;;;;;;;10.07;9.38;;;;;;;;;;5001955;28;20445;-76
2023/09/04 12:50:49;;;;;;;9.65;9.05;;;;;;;;;;5002920;28;20030;-76
2023/09/04 12:53:15;;;;;;;9.35;8.75;;;;;;;;;;5000502;28;20216;-76
2023/09/04 12:55:41;;;;;;;10.57;9.88;;;;;;;;;;5003350;28;20042;-76
2023/09/04 12:58:09;;;;;;;10.05;9.25;;;;;;;;;;5003122;28;20065;-75
2023/09/04 13:00:40;;;;;;;9.88;9.18;;;;;;;;;;5003877;28;20037;-76
2023/09/04 13:03:07;;;;;;;9.90;9.30;;;;;;;;;;5001726;28;20041;-75
2023/09/04 13:05:33;;;;;;;9.95;9.25;;;;;;;;;;5002972;28;20025;-76
2023/09/04 13:07:59;;;;;;;10.07;9.45;;;;;;;;;;5007375;28;20046;-76
2023/09/04 13:10:25;;;;;;;10.30;9.50;;;;;;;;;;5003252;28;20083;-77
2023/09/04 13:12:50;;;;;;;10.73;9.50;;;;;;;;;;5001827;28;20042;-76
2023/09/04 13:15:16;;;;;;;10.65;9.77;;;;;;;;;;5004159;28;20034;-75
2023/09/04 13:17:42;;;;;;;11.02;10.13;;;;;;;;;;5008783;28;20042;-75
2023/09/04 13:20:12;;;;;;;10.38;9.60;;;;;;;;;;5009486;28;20038;-76
2023/09/04 13:22:39;;;;;;;10.40;9.70;;;;;;;;;;5003662;28;20041;-76
2023/09/04 13:25:05;;;;;;;10.07;9.27;;;;;;;;;;5004144;28;20050;-75
2023/09/04 13:27:31;;;;;;;10.32;9.52;;;;;;;;;;5002024;28;20495;-75
2023/09/04 13:29:56;;;;;;;10.57;9.60;;;;;;;;;;5000463;28;20149;-75
2023/09/04 13:32:22;;;;;;;10.85;9.90;;;;;;;;;;5018220;28;20030;-76
2023/09/04 13:34:47;;;;;;;10.85;10.05;;;;;;;;;;5016653;28;20113;-76
2023/09/04 13:37:13;;;;;;;10.57;9.77;;;;;;;;;;4996422;28;20048;-76
2023/09/04 13:39:39;;;;;;;11.10;10.10;;;;;;;;;;5001617;28;20034;-75
2023/09/04 13:42:05;;;;;;;10.90;10.13;;;;;;;;;;5002379;28;20509;-75
2023/09/04 13:44:30;;;;;;;10.88;10.05;;;;;;;;;;5003196;28;20117;-76
2023/09/04 13:46:56;;;;;;;11.25;10.45;;;;;;;;;;5003430;28;20042;-75
2023/09/04 13:49:22;;;;;;;10.77;9.88;;;;;;;;;;5006165;28;20037;-76
2023/09/04 13:51:47;;;;;;;10.57;9.88;;;;;;;;;;5005114;28;20533;-77
2023/09/04 13:54:13;;;;;;;10.77;9.98;;;;;;;;;;5004471;28;20041;-76
2023/09/04 13:56:40;;;;;;;10.95;9.90;;;;;;;;;;5006851;28;20030;-76
2023/09/04 13:59:06;;;;;;;11.00;10.20;;;;;;;;;;5006291;28;20034;-77
2023/09/04 14:01:32;;;;;;;10.75;10.05;;;;;;;;;;5005243;28;20409;-77
2023/09/04 14:03:57;;;;;;;10.93;9.90;;;;;;;;;;5005031;28;20801;-77
2023/09/04 14:06:23;;;;;;;10.52;9.73;;;;;;;;;;5022668;28;20110;-76
2023/09/04 14:08:49;;;;;;;10.20;9.50;;;;;;;;;;5023758;28;20053;-77
2023/09/04 14:11:14;;;;;;;10.43;9.73;;;;;;;;;;5008078;28;20044;-77
2023/09/04 14:13:40;;;;;;;10.60;9.73;;;;;;;;;;5005219;28;20114;-77
2023/09/04 14:16:06;;;;;;;10.00;9.30;;;;;;;;;;5008733;28;20053;-76
2023/09/04 14:18:31;;;;;;;10.32;9.60;;;;;;;;;;5007847;28;20461;-76
2023/09/04 14:21:00;;;;;;;10.43;9.63;;;;;;;;;;5002737;28;20030;-76
2023/09/04 14:23:25;;;;;;;10.10;9.48;;;;;;;;;;5005056;28;20471;-76
2023/09/04 14:25:51;;;;;;;10.27;9.48;;;;;;;;;;5007804;28;20120;-77